Time;durP1;ratioP1;P1;durP2;ratioP2;P2;SDS_P1;SDS_P2;PMS_P1;PMS_P2;Temp;Humidity;BMP_temperature;BMP_pressure;BME280_temperature;BME280_humidity;BME280_pressure;Samples;Min_cycle;Max_cycle;Signal;HPM_P1;HPM_P2
2022/03/21 00:00:22;;;;;;;10.77;7.70;;;8.40;69.30;;;;;;5030403;28;20213;-60
2022/03/21 00:02:49;;;;;;;9.60;7.27;;;8.30;69.10;;;;;;5033084;28;20318;-60
2022/03/21 00:05:16;;;;;;;10.23;7.53;;;8.40;68.90;;;;;;5034674;28;20561;-60
2022/03/21 00:07:43;;;;;;;9.10;6.87;;;8.60;68.50;;;;;;5035213;28;20206;-60
2022/03/21 00:10:11;;;;;;;11.27;7.17;;;8.60;68.00;;;;;;5032489;28;20206;-66
2022/03/21 00:12:40;;;;;;;9.73;6.63;;;8.70;67.80;;;;;;5034739;28;20226;-67
2022/03/21 00:15:09;;;;;;;8.10;6.50;;;8.80;67.60;;;;;;5034643;28;20218;-67
2022/03/21 00:17:40;;;;;;;9.90;7.17;;;8.80;67.50;;;;;;5034919;28;20206;-66
2022/03/21 00:20:09;;;;;;;9.33;7.03;;;8.80;67.20;;;;;;5034706;28;20620;-66
2022/03/21 00:22:37;;;;;;;9.50;7.07;;;8.80;67.30;;;;;;5034545;28;20258;-66
2022/03/21 00:25:04;;;;;;;10.80;7.03;;;8.80;67.20;;;;;;5033816;28;20588;-65
2022/03/21 00:27:32;;;;;;;9.43;7.20;;;8.70;67.20;;;;;;5033765;28;20210;-66
2022/03/21 00:29:59;;;;;;;9.87;7.17;;;8.70;67.50;;;;;;5034449;28;20256;-67
2022/03/21 00:32:26;;;;;;;10.40;7.60;;;8.70;67.30;;;;;;5028863;28;21065;-66
2022/03/21 00:34:52;;;;;;;10.10;7.50;;;8.70;68.20;;;;;;5030097;28;20578;-64
2022/03/21 00:37:19;;;;;;;10.17;6.83;;;8.60;67.80;;;;;;5033642;28;20558;-64
2022/03/21 00:39:46;;;;;;;9.73;7.53;;;8.60;68.30;;;;;;5033805;28;20210;-68
2022/03/21 00:42:13;;;;;;;10.23;7.40;;;8.40;68.60;;;;;;5034028;28;20241;-70
2022/03/21 00:44:41;;;;;;;9.90;7.10;;;8.30;69.10;;;;;;5033836;28;20206;-68
2022/03/21 00:47:08;;;;;;;9.00;7.20;;;8.20;69.10;;;;;;5035614;28;20659;-66
2022/03/21 00:49:34;;;;;;;10.80;7.03;;;8.20;69.40;;;;;;5033284;28;20268;-67
2022/03/21 00:52:02;;;;;;;9.40;7.33;;;8.20;69.40;;;;;;5032240;28;20284;-69
2022/03/21 00:54:28;;;;;;;9.43;7.17;;;8.20;69.70;;;;;;5033974;28;20206;-66
2022/03/21 00:56:55;;;;;;;8.70;6.77;;;8.10;70.00;;;;;;5034157;28;20219;-62
2022/03/21 00:59:22;;;;;;;8.53;6.90;;;8.10;70.80;;;;;;5033786;28;20209;-61
2022/03/21 01:01:50;;;;;;;10.10;6.87;;;8.10;70.90;;;;;;5033880;28;20714;-61
2022/03/21 01:04:17;;;;;;;8.60;6.73;;;8.10;71.20;;;;;;5033748;28;20705;-61
2022/03/21 01:06:44;;;;;;;9.43;7.13;;;7.90;72.00;;;;;;5034053;28;20210;-61
2022/03/21 01:09:12;;;;;;;12.30;7.40;;;7.80;72.40;;;;;;5033826;28;20245;-61
2022/03/21 01:11:38;;;;;;;11.00;6.97;;;7.80;72.70;;;;;;5033629;28;20237;-61
2022/03/21 01:14:05;;;;;;;10.63;7.43;;;7.80;72.70;;;;;;5032590;28;20206;-61
2022/03/21 01:16:33;;;;;;;9.07;7.27;;;7.80;72.90;;;;;;5033895;28;20279;-61
2022/03/21 01:19:01;;;;;;;10.20;7.20;;;7.70;72.90;;;;;;5033660;28;20214;-61
2022/03/21 01:21:29;;;;;;;8.73;7.10;;;7.70;73.10;;;;;;5033657;28;20226;-61
2022/03/21 01:23:56;;;;;;;9.50;6.93;;;7.70;73.30;;;;;;5033116;28;20321;-61
2022/03/21 01:26:23;;;;;;;8.73;7.00;;;7.60;73.40;;;;;;5033412;28;20242;-61
2022/03/21 01:28:50;;;;;;;8.90;7.00;;;7.60;73.70;;;;;;5033674;28;20207;-61
2022/03/21 01:31:16;;;;;;;10.60;7.80;;;7.50;74.00;;;;;;5033436;28;20239;-61
2022/03/21 01:33:43;;;;;;;8.17;6.57;;;7.50;74.40;;;;;;5033256;28;20265;-61
2022/03/21 01:36:11;;;;;;;8.23;6.90;;;7.50;74.40;;;;;;5033327;28;20213;-61
2022/03/21 01:38:38;;;;;;;10.17;7.23;;;7.40;74.50;;;;;;5033311;28;20206;-60
2022/03/21 01:41:05;;;;;;;9.93;6.87;;;7.40;74.70;;;;;;5056795;22;20260;-60
2022/03/21 01:43:31;;;;;;;11.57;7.20;;;7.30;74.80;;;;;;5033713;28;20249;-60
2022/03/21 01:45:58;;;;;;;11.67;8.63;;;7.20;75.30;;;;;;5032900;28;20210;-60
2022/03/21 01:48:25;;;;;;;10.17;7.70;;;7.20;75.80;;;;;;5033583;28;20692;-59
2022/03/21 01:50:52;;;;;;;9.67;7.13;;;7.10;76.10;;;;;;5033614;28;20210;-59
2022/03/21 01:56:04;;;;;;;9.00;6.90;;;7.10;76.60;;;;;;5032746;28;20677;-60
2022/03/21 01:58:32;;;;;;;10.23;7.20;;;7.00;76.80;;;;;;5033865;28;20276;-60
2022/03/21 02:00:58;;;;;;;12.00;7.07;;;7.00;76.50;;;;;;5033470;28;20301;-60
2022/03/21 02:03:25;;;;;;;8.27;6.77;;;7.00;76.30;;;;;;5033255;28;20222;-60
2022/03/21 02:05:52;;;;;;;9.27;7.13;;;7.00;76.30;;;;;;5032888;28;20206;-60
2022/03/21 02:08:20;;;;;;;9.17;7.27;;;7.00;76.70;;;;;;5033229;28;20694;-60
2022/03/21 02:10:51;;;;;;;9.10;7.03;;;6.90;76.90;;;;;;5033349;28;20255;-60
2022/03/21 02:13:20;;;;;;;9.53;7.43;;;6.90;77.50;;;;;;5033450;28;20205;-60
2022/03/21 02:15:47;;;;;;;8.17;6.90;;;6.80;77.80;;;;;;5033039;28;20203;-60
2022/03/21 02:18:13;;;;;;;9.37;7.10;;;6.70;78.40;;;;;;5033298;28;20696;-60
2022/03/21 02:20:42;;;;;;;9.63;7.37;;;6.60;78.60;;;;;;5032816;28;20218;-60
2022/03/21 02:23:13;;;;;;;10.60;7.23;;;6.60;78.80;;;;;;5032789;28;20803;-60
2022/03/21 02:25:43;;;;;;;9.27;7.47;;;6.60;79.10;;;;;;5033148;28;20633;-60
2022/03/21 02:28:12;;;;;;;10.30;7.53;;;6.60;79.40;;;;;;5032718;28;20217;-60
2022/03/21 02:30:41;;;;;;;9.93;7.23;;;6.50;79.30;;;;;;5032836;28;20623;-60
2022/03/21 02:33:09;;;;;;;11.07;6.83;;;6.50;79.20;;;;;;5032745;28;20226;-60
2022/03/21 02:35:37;;;;;;;11.20;7.50;;;6.50;78.90;;;;;;5032392;28;20628;-60
2022/03/21 02:38:04;;;;;;;12.37;7.10;;;6.60;79.20;;;;;;5032777;28;20210;-60
2022/03/21 02:40:31;;;;;;;10.10;7.77;;;6.50;79.30;;;;;;5032880;28;20260;-60
2022/03/21 02:42:59;;;;;;;8.87;6.73;;;6.50;79.60;;;;;;5032272;28;20237;-60
2022/03/21 02:45:25;;;;;;;11.03;7.20;;;6.40;80.60;;;;;;5032379;28;20597;-60
2022/03/21 02:47:52;;;;;;;10.13;7.50;;;6.30;81.20;;;;;;5032410;28;20647;-60
2022/03/21 02:50:30;;;;;;;9.57;7.30;;;6.30;81.20;;;;;;5032849;28;20213;-60
2022/03/21 02:52:58;;;;;;;10.27;7.77;;;6.30;81.30;;;;;;5032466;28;20733;-60
2022/03/21 02:55:25;;;;;;;10.63;7.60;;;6.30;81.40;;;;;;5032265;28;20206;-60
2022/03/21 02:57:52;;;;;;;10.67;7.17;;;6.20;82.00;;;;;;5032415;28;20670;-60
2022/03/21 03:00:20;;;;;;;10.90;7.80;;;6.00;82.60;;;;;;5032456;28;20244;-60
2022/03/21 03:02:47;;;;;;;10.77;7.87;;;5.90;82.90;;;;;;5033058;28;20252;-60
2022/03/21 03:05:13;;;;;;;9.10;7.50;;;5.80;83.40;;;;;;5032425;28;20260;-60
2022/03/21 03:07:40;;;;;;;9.87;7.60;;;5.80;83.70;;;;;;5032711;28;20283;-60
2022/03/21 03:10:07;;;;;;;9.47;7.37;;;5.70;84.20;;;;;;5032313;28;20308;-60
2022/03/21 03:12:34;;;;;;;12.17;7.93;;;5.70;84.20;;;;;;5032350;28;20226;-60
2022/03/21 03:15:00;;;;;;;11.13;7.93;;;5.80;84.30;;;;;;5032603;28;20292;-60
2022/03/21 03:17:29;;;;;;;9.23;7.83;;;5.80;84.30;;;;;;5033262;28;20210;-60
2022/03/21 03:19:55;;;;;;;9.80;7.47;;;5.80;85.00;;;;;;5032739;28;20202;-60
2022/03/21 03:22:24;;;;;;;9.77;7.60;;;5.70;85.50;;;;;;5032691;28;20225;-60
2022/03/21 03:24:52;;;;;;;10.33;7.87;;;5.60;85.50;;;;;;5032568;28;20237;-60
2022/03/21 03:27:19;;;;;;;9.23;7.20;;;5.60;85.70;;;;;;5032650;28;20670;-60
2022/03/21 03:29:45;;;;;;;10.57;7.67;;;5.50;86.10;;;;;;5032521;28;20253;-60
2022/03/21 03:32:12;;;;;;;10.00;7.37;;;5.40;86.40;;;;;;5032551;28;20550;-60
2022/03/21 03:34:40;;;;;;;9.40;7.20;;;5.30;86.60;;;;;;5032396;28;20249;-57
2022/03/21 03:37:07;;;;;;;12.13;7.43;;;5.30;87.30;;;;;;5033229;28;20202;-60
2022/03/21 03:39:34;;;;;;;11.53;7.50;;;5.20;88.00;;;;;;5036251;28;20289;-60
2022/03/21 03:42:01;;;;;;;9.50;7.70;;;5.10;88.40;;;;;;5038627;28;20725;-59
2022/03/21 03:44:27;;;;;;;9.50;7.27;;;5.00;88.60;;;;;;5038591;28;20604;-58
2022/03/21 03:46:54;;;;;;;9.63;7.37;;;5.00;88.80;;;;;;5035524;28;20284;-59
2022/03/21 03:49:21;;;;;;;10.37;7.47;;;4.90;88.90;;;;;;5035374;28;20681;-59
2022/03/21 03:51:49;;;;;;;11.10;7.80;;;4.90;89.00;;;;;;5035255;28;20226;-59
2022/03/21 03:54:15;;;;;;;11.97;7.60;;;4.90;89.10;;;;;;5034937;28;20256;-58
2022/03/21 03:56:42;;;;;;;9.57;7.00;;;4.80;89.40;;;;;;5035438;28;20206;-59
2022/03/21 03:59:09;;;;;;;9.20;7.30;;;4.70;90.20;;;;;;5035599;28;20620;-59
2022/03/21 04:01:37;;;;;;;8.90;7.07;;;4.60;90.00;;;;;;5035206;28;20230;-60
2022/03/21 04:04:04;;;;;;;9.80;7.53;;;4.60;90.10;;;;;;5034789;28;20325;-59
2022/03/21 04:06:31;;;;;;;11.37;7.43;;;4.60;90.20;;;;;;5035070;28;20214;-59
2022/03/21 04:08:59;;;;;;;10.63;7.40;;;4.60;90.40;;;;;;5034857;28;20210;-59
2022/03/21 04:11:26;;;;;;;10.13;7.47;;;4.50;90.40;;;;;;5034967;28;20630;-59
2022/03/21 04:13:53;;;;;;;14.10;7.50;;;4.40;90.50;;;;;;5034882;28;20206;-59
2022/03/21 04:16:20;;;;;;;11.00;7.67;;;4.30;90.70;;;;;;5034948;28;20240;-59
2022/03/21 04:18:48;;;;;;;9.70;7.27;;;4.20;90.80;;;;;;5034815;28;20674;-59
2022/03/21 04:21:15;;;;;;;11.40;7.63;;;4.20;90.90;;;;;;5034806;28;20226;-59
2022/03/21 04:23:41;;;;;;;10.97;7.53;;;4.00;91.00;;;;;;5034564;28;20328;-59
2022/03/21 04:26:10;;;;;;;9.27;7.37;;;3.90;91.30;;;;;;5034545;28;20297;-59
2022/03/21 04:28:36;;;;;;;12.63;7.67;;;3.90;91.30;;;;;;5034795;28;20214;-59
2022/03/21 04:31:03;;;;;;;11.50;7.30;;;3.90;91.40;;;;;;5034762;28;20693;-59
2022/03/21 04:33:30;;;;;;;10.10;7.47;;;3.80;91.50;;;;;;5034754;28;20624;-59
2022/03/21 04:35:57;;;;;;;10.93;7.27;;;3.80;91.60;;;;;;5034538;28;20264;-59
2022/03/21 04:38:23;;;;;;;12.10;8.03;;;3.80;91.60;;;;;;5035118;28;20252;-59
2022/03/21 04:40:51;;;;;;;10.07;7.23;;;3.70;91.50;;;;;;5034781;28;20214;-59
2022/03/21 04:43:20;;;;;;;10.67;7.50;;;3.70;91.20;;;;;;5034749;28;20626;-59
2022/03/21 04:45:48;;;;;;;12.30;7.30;;;3.80;91.30;;;;;;5034339;28;20689;-58
2022/03/21 04:48:15;;;;;;;10.70;7.80;;;3.80;91.30;;;;;;5033737;28;20206;-58
2022/03/21 04:50:43;;;;;;;10.40;7.23;;;3.80;91.30;;;;;;5033973;28;20236;-59
2022/03/21 04:53:10;;;;;;;10.53;7.67;;;3.90;91.20;;;;;;5034717;28;20317;-59
2022/03/21 04:55:37;;;;;;;12.27;7.30;;;4.00;91.00;;;;;;5034172;28;20682;-59
2022/03/21 04:58:04;;;;;;;10.00;7.53;;;4.10;90.90;;;;;;5034349;28;20592;-59
2022/03/21 05:00:33;;;;;;;11.30;7.23;;;4.00;90.70;;;;;;5034363;28;20237;-59
2022/03/21 05:03:00;;;;;;;14.80;7.60;;;3.90;90.80;;;;;;5034002;28;20718;-58
2022/03/21 05:05:27;;;;;;;12.60;8.50;;;3.90;90.80;;;;;;5034640;28;20236;-59
2022/03/21 05:07:54;;;;;;;9.33;6.80;;;3.90;91.00;;;;;;5035148;28;20214;-59
2022/03/21 05:10:22;;;;;;;10.23;7.67;;;3.90;91.10;;;;;;5034780;28;20207;-59
2022/03/21 05:12:49;;;;;;;11.50;7.60;;;3.90;91.30;;;;;;5034418;28;20265;-58
2022/03/21 05:15:15;;;;;;;12.30;8.13;;;3.90;91.30;;;;;;5033904;28;20206;-59
2022/03/21 05:17:44;;;;;;;12.27;8.03;;;3.90;91.20;;;;;;5033901;28;20214;-58
2022/03/21 05:20:21;;;;;;;11.37;7.90;;;4.00;91.00;;;;;;5033980;28;20206;-59
2022/03/21 05:30:57;;;;;;;9.13;6.83;;;4.00;90.70;;;;;;5034454;28;20621;-59
2022/03/21 05:31:08;;;;;;;9.87;7.20;;;4.10;90.20;;;;;;5034154;28;20611;-59
2022/03/21 05:36:22;;;;;;;11.87;7.67;;;4.10;90.50;;;;;;5033910;28;20278;-59
2022/03/21 05:38:49;;;;;;;9.47;7.53;;;4.20;90.30;;;;;;5034556;28;20213;-59
2022/03/21 05:41:17;;;;;;;12.10;7.30;;;4.30;90.10;;;;;;5034023;28;20230;-60
2022/03/21 05:43:44;;;;;;;10.13;7.30;;;4.30;89.90;;;;;;5034304;28;20705;-59
2022/03/21 05:46:11;;;;;;;10.40;7.53;;;4.40;89.70;;;;;;5034198;28;20210;-58
2022/03/21 05:48:59;;;;;;;11.43;7.47;;;4.40;89.70;;;;;;5034575;28;20364;-59
2022/03/21 05:51:28;;;;;;;11.80;7.43;;;4.40;89.70;;;;;;5034348;28;20328;-60
2022/03/21 05:53:55;;;;;;;10.17;7.90;;;4.40;89.90;;;;;;5034081;28;20268;-59
2022/03/21 05:56:22;;;;;;;10.77;7.70;;;4.50;89.50;;;;;;5033557;28;20207;-59
2022/03/21 05:58:49;;;;;;;11.10;7.83;;;4.60;89.40;;;;;;5033991;28;20277;-59
2022/03/21 06:01:18;;;;;;;12.67;8.20;;;4.70;88.80;;;;;;5033368;28;20226;-60
2022/03/21 06:03:48;;;;;;;11.33;8.30;;;4.80;88.40;;;;;;5033506;28;20226;-60
2022/03/21 06:06:15;;;;;;;11.33;8.03;;;4.90;87.60;;;;;;5033830;28;20684;-60
2022/03/21 06:08:42;;;;;;;11.20;7.77;;;5.10;87.30;;;;;;5033729;28;20210;-60
2022/03/21 06:11:09;;;;;;;13.77;8.50;;;5.20;86.90;;;;;;5033855;28;20325;-60
2022/03/21 06:13:38;;;;;;;10.67;7.40;;;5.40;86.30;;;;;;5034411;28;20210;-60
2022/03/21 06:16:06;;;;;;;11.33;7.73;;;5.50;85.90;;;;;;5034655;28;20202;-61
2022/03/21 06:18:34;;;;;;;9.93;7.33;;;5.70;85.50;;;;;;5034506;28;20212;-61
2022/03/21 06:21:03;;;;;;;13.00;8.27;;;5.90;85.10;;;;;;5034511;28;20206;-61
2022/03/21 06:23:30;;;;;;;11.17;7.50;;;6.00;84.50;;;;;;5034355;28;20210;-61
2022/03/21 06:25:58;;;;;;;14.20;8.90;;;6.20;84.00;;;;;;5033950;28;20234;-60
2022/03/21 06:28:27;;;;;;;10.53;7.60;;;6.50;83.60;;;;;;5034027;28;20243;-61
2022/03/21 06:30:55;;;;;;;11.60;7.60;;;7.00;82.20;;;;;;5034665;28;20210;-61
2022/03/21 06:33:24;;;;;;;9.97;7.50;;;7.50;80.50;;;;;;5034786;28;20221;-61
2022/03/21 06:35:51;;;;;;;11.67;7.63;;;7.90;79.40;;;;;;5034739;28;20202;-60
2022/03/21 06:38:20;;;;;;;11.60;7.87;;;8.60;78.00;;;;;;5033602;28;20206;-60
2022/03/21 06:40:47;;;;;;;10.97;7.63;;;9.20;76.10;;;;;;5033068;28;20229;-61
2022/03/21 06:43:15;;;;;;;12.47;7.37;;;9.60;74.50;;;;;;5033472;28;20210;-61
2022/03/21 06:45:42;;;;;;;13.07;8.23;;;10.00;72.20;;;;;;5033674;28;20269;-61
2022/03/21 06:48:09;;;;;;;11.10;7.10;;;10.30;71.90;;;;;;5034123;28;20210;-60
2022/03/21 06:50:36;;;;;;;11.90;8.00;;;10.70;70.40;;;;;;5032996;28;20211;-61
2022/03/21 06:53:03;;;;;;;9.63;7.50;;;11.10;69.00;;;;;;5033261;28;20226;-67
2022/03/21 06:55:31;;;;;;;13.37;7.93;;;11.60;67.60;;;;;;5033124;28;20206;-62
2022/03/21 06:57:57;;;;;;;8.27;6.87;;;11.80;66.80;;;;;;5032543;28;20214;-59
2022/03/21 07:00:24;;;;;;;11.97;7.50;;;11.90;65.80;;;;;;5032598;28;20516;-60
2022/03/21 07:02:51;;;;;;;11.10;7.17;;;11.80;65.60;;;;;;5032541;28;20222;-59
2022/03/21 07:05:18;;;;;;;10.33;7.20;;;11.80;65.20;;;;;;5031924;28;20638;-59
2022/03/21 07:07:47;;;;;;;9.03;7.23;;;12.00;65.00;;;;;;5032108;28;20214;-59
2022/03/21 07:10:13;;;;;;;11.73;7.83;;;12.40;64.30;;;;;;5032428;28;20276;-60
2022/03/21 07:12:41;;;;;;;12.63;7.47;;;12.60;63.10;;;;;;5033802;28;20256;-60
2022/03/21 07:15:09;;;;;;;8.10;6.93;;;12.60;63.50;;;;;;5035898;28;20202;-62
2022/03/21 07:17:36;;;;;;;12.87;7.93;;;12.80;63.20;;;;;;5036393;28;20206;-60
2022/03/21 07:20:02;;;;;;;9.47;7.37;;;12.90;62.40;;;;;;5036371;28;20264;-60
2022/03/21 07:22:29;;;;;;;9.67;7.33;;;13.20;61.90;;;;;;5035986;28;20237;-60
2022/03/21 07:24:56;;;;;;;8.00;6.50;;;13.50;60.80;;;;;;5035758;28;20238;-60
2022/03/21 07:27:23;;;;;;;9.83;7.83;;;13.60;60.40;;;;;;5036219;28;20733;-60
2022/03/21 07:29:51;;;;;;;10.63;7.40;;;13.50;60.60;;;;;;5036241;28;20686;-60
2022/03/21 07:32:18;;;;;;;7.97;6.83;;;13.80;60.20;;;;;;5035651;28;20651;-59
2022/03/21 07:34:45;;;;;;;8.77;7.37;;;14.20;59.70;;;;;;5035823;28;20237;-60
2022/03/21 07:37:11;;;;;;;11.37;7.93;;;14.70;58.50;;;;;;5035726;28;20210;-58
2022/03/21 07:39:39;;;;;;;12.50;8.53;;;15.00;58.70;;;;;;5036193;28;20214;-59
2022/03/21 07:42:07;;;;;;;12.10;8.37;;;15.00;57.50;;;;;;5052859;22;20230;-62
2022/03/21 07:47:23;;;;;;;9.60;7.87;;;15.20;57.30;;;;;;5033904;28;20676;-61
2022/03/21 07:49:51;;;;;;;11.03;7.23;;;15.60;55.90;;;;;;5033580;28;20588;-61
2022/03/21 07:52:19;;;;;;;10.57;7.53;;;15.70;55.70;;;;;;5024168;28;20239;-61
2022/03/21 07:54:48;;;;;;;10.07;7.70;;;15.50;55.80;;;;;;5013599;28;20230;-60
2022/03/21 07:57:14;;;;;;;14.53;7.90;;;15.40;55.80;;;;;;5013779;28;20308;-60
2022/03/21 07:59:41;;;;;;;11.87;8.00;;;15.20;55.90;;;;;;5013900;28;20214;-60
2022/03/21 08:02:08;;;;;;;8.83;7.50;;;14.80;56.60;;;;;;5013743;28;20223;-60
2022/03/21 08:04:36;;;;;;;11.70;8.10;;;14.20;57.40;;;;;;5013729;28;20281;-60
2022/03/21 08:07:03;;;;;;;9.87;7.90;;;13.70;57.70;;;;;;5013710;28;20207;-60
2022/03/21 08:09:30;;;;;;;11.23;8.10;;;13.30;58.70;;;;;;5013420;28;20674;-60
2022/03/21 08:11:58;;;;;;;8.57;7.30;;;13.00;59.30;;;;;;5013649;28;20226;-59
2022/03/21 08:14:25;;;;;;;10.10;7.53;;;12.70;59.90;;;;;;5013534;28;20635;-60
2022/03/21 08:16:52;;;;;;;10.27;8.17;;;12.50;60.60;;;;;;5013672;28;20207;-60
2022/03/21 08:19:20;;;;;;;10.43;7.40;;;12.40;61.30;;;;;;5013803;28;20214;-62
2022/03/21 08:21:49;;;;;;;9.90;8.17;;;12.20;61.40;;;;;;5013837;28;20285;-61
2022/03/21 08:24:15;;;;;;;13.70;8.27;;;12.10;61.90;;;;;;5013064;28;20697;-62
2022/03/21 08:26:43;;;;;;;11.83;7.90;;;12.00;62.20;;;;;;5013467;28;20748;-60
2022/03/21 08:29:10;;;;;;;12.60;7.63;;;12.00;62.20;;;;;;5013379;28;20207;-59
2022/03/21 08:31:37;;;;;;;13.83;8.07;;;12.00;62.50;;;;;;5013221;28;20577;-60
2022/03/21 08:34:04;;;;;;;9.33;7.33;;;12.10;62.40;;;;;;5013749;28;20203;-60
2022/03/21 08:36:31;;;;;;;9.23;7.40;;;12.00;62.70;;;;;;5013241;28;20222;-60
2022/03/21 08:39:00;;;;;;;8.43;7.53;;;12.00;63.00;;;;;;5013454;28;20206;-60
2022/03/21 08:41:27;;;;;;;10.77;8.03;;;12.20;62.80;;;;;;4977554;28;1030369;-60
2022/03/21 08:43:54;;;;;;;11.97;8.30;;;12.40;62.80;;;;;;5014318;28;20261;-60
2022/03/21 08:46:21;;;;;;;12.27;7.87;;;12.30;62.00;;;;;;5014086;28;20226;-60
2022/03/21 08:51:32;;;;;;;12.37;8.83;;;12.40;62.50;;;;;;5014429;28;20296;-60
2022/03/21 08:54:01;;;;;;;9.57;7.63;;;12.60;63.10;;;;;;5014090;28;20211;-58
2022/03/21 08:56:28;;;;;;;10.40;8.13;;;12.80;62.60;;;;;;5013519;28;20257;-59
2022/03/21 08:58:55;;;;;;;9.90;8.23;;;13.00;62.00;;;;;;5013744;28;20214;-59
2022/03/21 09:01:22;;;;;;;10.33;7.90;;;13.30;61.40;;;;;;5013653;28;20210;-59
2022/03/21 09:03:49;;;;;;;10.97;8.20;;;13.50;60.80;;;;;;5013947;28;20592;-59
2022/03/21 09:06:16;;;;;;;12.17;8.37;;;13.70;60.00;;;;;;5013436;28;20281;-59
2022/03/21 09:08:43;;;;;;;12.60;7.97;;;13.70;59.30;;;;;;5013709;28;20215;-60
2022/03/21 09:11:11;;;;;;;11.30;8.30;;;13.80;59.30;;;;;;5013474;28;20653;-60
2022/03/21 09:13:37;;;;;;;10.00;8.37;;;13.70;60.30;;;;;;5013865;28;20211;-60
2022/03/21 09:16:05;;;;;;;10.43;8.80;;;13.70;60.00;;;;;;5013504;28;20261;-60
2022/03/21 09:18:32;;;;;;;10.80;8.13;;;13.70;59.70;;;;;;5013850;28;20222;-62
2022/03/21 09:20:59;;;;;;;11.53;8.60;;;13.90;59.90;;;;;;5013573;28;20266;-60
2022/03/21 09:23:25;;;;;;;9.63;8.17;;;14.10;60.10;;;;;;5013412;28;20672;-60
2022/03/21 09:25:52;;;;;;;11.80;9.17;;;14.40;59.60;;;;;;5013224;28;20229;-60
2022/03/21 09:28:20;;;;;;;12.63;9.20;;;14.60;59.20;;;;;;5013461;28;20206;-61
2022/03/21 09:30:47;;;;;;;12.07;8.40;;;14.90;59.20;;;;;;5013697;28;20571;-61
2022/03/21 09:33:15;;;;;;;11.97;8.50;;;15.10;57.60;;;;;;5013312;28;20254;-61
2022/03/21 09:35:43;;;;;;;10.50;8.30;;;15.40;57.50;;;;;;5012447;28;20206;-67
2022/03/21 09:38:10;;;;;;;10.40;8.60;;;15.40;57.10;;;;;;5013130;28;20233;-62
2022/03/21 09:40:37;;;;;;;11.00;8.97;;;15.40;57.10;;;;;;5012966;28;20589;-65
2022/03/21 09:43:03;;;;;;;11.57;8.70;;;15.50;57.40;;;;;;5013091;28;20616;-68
2022/03/21 09:45:32;;;;;;;13.50;8.87;;;15.50;57.70;;;;;;5013041;28;20222;-61
2022/03/21 09:48:11;;;;;;;9.90;8.47;;;15.40;57.80;;;;;;5013147;28;20238;-62
2022/03/21 09:50:40;;;;;;;12.33;8.53;;;15.60;57.80;;;;;;5013088;28;20301;-61
2022/03/21 09:53:08;;;;;;;9.73;8.47;;;15.90;57.80;;;;;;5012904;28;20706;-61
2022/03/21 09:55:35;;;;;;;11.70;9.43;;;16.10;57.50;;;;;;5012690;28;20214;-61
2022/03/21 09:58:03;;;;;;;11.73;8.80;;;16.30;57.00;;;;;;5012731;28;20652;-60
2022/03/21 10:00:32;;;;;;;10.83;9.07;;;16.20;56.80;;;;;;5012825;28;20210;-61
2022/03/21 10:02:59;;;;;;;13.00;8.87;;;16.20;57.10;;;;;;5012525;28;20242;-61
2022/03/21 10:05:34;;;;;;;11.57;9.07;;;16.20;56.90;;;;;;5012703;28;20230;-60
2022/03/21 10:08:21;;;;;;;10.80;9.30;;;16.00;57.30;;;;;;5012965;28;20211;-60
2022/03/21 10:10:53;;;;;;;14.13;9.87;;;16.00;57.10;;;;;;5012736;28;20294;-61
2022/03/21 10:13:20;;;;;;;10.77;9.10;;;16.00;57.70;;;;;;5012338;28;20265;-60
2022/03/21 10:15:49;;;;;;;13.03;10.50;;;15.80;57.90;;;;;;5012553;28;20207;-61
2022/03/21 10:18:18;;;;;;;12.60;9.03;;;15.90;57.80;;;;;;5012671;28;20210;-62
2022/03/21 10:20:45;;;;;;;10.67;9.47;;;16.20;57.20;;;;;;5012648;28;20671;-61
2022/03/21 10:23:19;;;;;;;11.87;9.50;;;16.50;56.60;;;;;;5012714;28;20235;-61
2022/03/21 10:25:46;;;;;;;12.23;9.63;;;16.70;56.50;;;;;;5011935;28;20764;-61
2022/03/21 10:28:33;;;;;;;13.43;9.30;;;17.00;56.10;;;;;;5012270;28;20603;-61
2022/03/21 10:31:02;;;;;;;13.27;10.37;;;16.70;56.80;;;;;;5012456;28;20301;-62
2022/03/21 10:33:29;;;;;;;11.80;9.33;;;16.60;57.30;;;;;;5012335;28;20230;-60
2022/03/21 10:35:56;;;;;;;13.70;9.63;;;16.50;56.80;;;;;;5012038;28;20289;-60
2022/03/21 10:38:33;;;;;;;13.37;10.00;;;16.40;57.00;;;;;;5012034;28;20676;-60
2022/03/21 10:41:06;;;;;;;12.70;9.20;;;16.20;57.50;;;;;;5012277;28;20218;-61
2022/03/21 10:43:33;;;;;;;12.90;9.68;;;16.20;58.40;;;;;;5011824;28;20958;-60
2022/03/21 10:46:02;;;;;;;11.27;9.93;;;16.40;58.10;;;;;;5011621;28;20613;-60
2022/03/21 10:48:30;;;;;;;12.00;9.27;;;16.40;58.20;;;;;;5011999;28;20203;-60
2022/03/21 10:50:59;;;;;;;11.47;9.40;;;16.30;58.10;;;;;;5011663;28;20211;-62
2022/03/21 10:53:27;;;;;;;12.33;9.97;;;16.50;57.50;;;;;;5012064;28;20235;-62
2022/03/21 10:56:02;;;;;;;11.83;9.70;;;16.60;57.30;;;;;;5011930;28;20214;-65
2022/03/21 10:58:35;;;;;;;10.53;9.43;;;16.80;57.50;;;;;;5012116;28;20206;-62
2022/03/21 11:01:14;;;;;;;12.00;9.90;;;16.80;57.70;;;;;;5011817;28;20203;-62
2022/03/21 11:03:42;;;;;;;14.30;9.90;;;16.60;57.60;;;;;;5011447;28;20210;-62
2022/03/21 11:06:09;;;;;;;13.57;9.87;;;16.30;57.80;;;;;;5011509;28;20230;-61
2022/03/21 11:08:36;;;;;;;10.87;9.17;;;16.20;57.90;;;;;;5011724;28;20238;-63
2022/03/21 11:11:03;;;;;;;13.70;9.60;;;16.30;58.20;;;;;;5011826;28;20293;-62
2022/03/21 11:13:30;;;;;;;15.47;9.97;;;16.40;57.90;;;;;;5011633;28;20259;-63
2022/03/21 11:15:58;;;;;;;11.83;9.97;;;16.40;57.60;;;;;;5011589;28;20203;-62
2022/03/21 11:18:27;;;;;;;15.00;9.67;;;16.40;57.90;;;;;;5011881;28;20202;-64
2022/03/21 11:20:54;;;;;;;13.73;9.73;;;16.60;57.60;;;;;;5012038;28;20218;-63
2022/03/21 11:23:21;;;;;;;16.13;11.47;;;16.80;57.70;;;;;;5012004;28;20231;-62
2022/03/21 11:25:53;;;;;;;13.63;9.67;;;17.00;57.40;;;;;;5012509;28;20315;-62
2022/03/21 11:29:01;;;;;;;17.83;10.53;;;17.30;57.10;;;;;;5011832;28;20207;-60
2022/03/21 11:31:42;;;;;;;13.30;9.75;;;17.50;56.80;;;;;;5011918;28;20294;-60
2022/03/21 11:34:22;;;;;;;12.23;9.93;;;17.60;56.70;;;;;;5011840;28;20206;-62
2022/03/21 11:36:54;;;;;;;12.93;9.40;;;17.70;56.80;;;;;;5011334;28;20640;-60
2022/03/21 11:39:21;;;;;;;12.32;9.98;;;17.80;56.10;;;;;;5011716;28;20207;-60
2022/03/21 11:41:59;;;;;;;11.60;9.15;;;17.80;56.10;;;;;;5011960;28;20238;-60
2022/03/21 11:44:27;;;;;;;11.77;9.65;;;18.00;56.20;;;;;;5012166;28;20214;-62
2022/03/21 11:46:54;;;;;;;10.70;9.43;;;17.90;56.20;;;;;;5011806;28;20232;-62
2022/03/21 11:49:55;;;;;;;11.57;9.77;;;18.10;56.10;;;;;;5011919;28;20211;-61
2022/03/21 11:52:23;;;;;;;13.20;9.25;;;18.40;56.10;;;;;;4969960;28;20227;-61
2022/03/21 11:54:50;;;;;;;11.93;9.80;;;18.60;55.60;;;;;;4969574;28;20209;-61
2022/03/21 11:57:28;;;;;;;12.45;9.85;;;18.70;55.60;;;;;;4988917;28;20212;-60
2022/03/21 11:59:59;;;;;;;14.75;9.90;;;18.80;56.00;;;;;;5014797;28;20264;-60
2022/03/21 12:02:55;;;;;;;12.68;9.70;;;18.90;55.60;;;;;;5014941;28;20234;-61
2022/03/21 12:05:50;;;;;;;12.35;9.93;;;19.00;55.40;;;;;;5014760;28;20265;-61
2022/03/21 12:08:48;;;;;;;11.45;9.73;;;19.00;55.20;;;;;;5014690;28;20214;-60
2022/03/21 12:11:53;;;;;;;16.27;9.27;;;18.90;55.10;;;;;;5014597;28;20213;-62
2022/03/21 12:14:40;;;;;;;11.25;9.70;;;18.80;55.30;;;;;;5005621;28;20637;-61
2022/03/21 12:17:36;;;;;;;14.00;10.00;;;18.80;55.30;;;;;;5014633;28;20207;-61
2022/03/21 12:20:14;;;;;;;11.98;9.20;;;18.80;55.80;;;;;;5014471;28;20206;-61
2022/03/21 12:22:47;;;;;;;11.48;9.60;;;18.70;55.50;;;;;;5014276;28;20231;-62
2022/03/21 12:25:17;;;;;;;11.48;8.70;;;18.80;55.50;;;;;;5014190;28;20671;-61
2022/03/21 12:27:46;;;;;;;12.23;9.75;;;18.90;55.70;;;;;;5014445;28;20227;-61
2022/03/21 12:30:41;;;;;;;16.33;9.35;;;18.90;55.70;;;;;;5014422;28;20203;-61
2022/03/21 12:33:27;;;;;;;11.50;8.80;;;19.10;55.80;;;;;;5014243;28;20231;-61
2022/03/21 12:36:10;;;;;;;13.15;9.20;;;19.10;55.50;;;;;;5014240;28;20242;-61
2022/03/21 12:38:39;;;;;;;14.02;9.13;;;19.30;56.10;;;;;;5014355;28;20203;-61
2022/03/21 12:41:11;;;;;;;14.88;9.43;;;19.10;55.50;;;;;;5014050;28;20573;-61
2022/03/21 12:43:47;;;;;;;11.75;9.25;;;19.10;55.90;;;;;;5014072;28;20209;-61
2022/03/21 12:46:16;;;;;;;11.65;9.90;;;19.20;56.30;;;;;;5013804;28;20222;-61
2022/03/21 12:48:45;;;;;;;13.80;8.52;;;19.50;55.80;;;;;;5014061;28;20202;-61
2022/03/21 12:51:15;;;;;;;14.40;9.40;;;19.60;55.20;;;;;;5014055;28;20302;-61
2022/03/21 12:53:44;;;;;;;13.68;9.18;;;19.80;55.20;;;;;;5013749;28;20207;-61
2022/03/21 12:56:13;;;;;;;14.05;9.68;;;19.90;55.10;;;;;;5013373;28;20681;-61
2022/03/21 12:58:45;;;;;;;13.45;9.52;;;19.90;55.10;;;;;;5013990;28;20203;-61
2022/03/21 13:01:13;;;;;;;14.25;9.05;;;19.90;55.10;;;;;;5013781;28;20211;-61
2022/03/21 13:03:40;;;;;;;16.55;9.35;;;19.80;55.40;;;;;;5013773;28;20242;-61
2022/03/21 13:11:38;;;;;;;11.98;8.65;;;19.50;54.80;;;;;;5013198;28;20230;-61
2022/03/21 13:14:13;;;;;;;10.30;8.68;;;19.60;55.00;;;;;;5013643;28;20215;-61
2022/03/21 13:16:46;;;;;;;13.18;9.40;;;19.70;54.80;;;;;;5013303;28;20629;-61